createdAt,value
2022-10-30T00:01:35.488Z,11.28
2022-10-30T00:04:01.975Z,11.29
2022-10-30T00:06:28.353Z,11.28
2022-10-30T00:08:54.787Z,11.30
2022-10-30T00:11:21.319Z,11.32
2022-10-30T00:13:47.717Z,11.30
2022-10-30T00:16:14.076Z,11.30
2022-10-30T00:18:42.456Z,11.34
2022-10-30T00:21:11.940Z,11.33
2022-10-30T00:23:38.545Z,11.31
2022-10-30T00:26:08.485Z,11.31
2022-10-30T00:28:35.115Z,11.27
2022-10-30T00:31:02.628Z,11.24
2022-10-30T00:33:29.088Z,11.18
2022-10-30T00:35:55.587Z,11.22
2022-10-30T00:38:22.040Z,11.21
2022-10-30T00:40:48.647Z,11.21
2022-10-30T00:43:34.993Z,11.21
2022-10-30T00:46:18.785Z,11.23
2022-10-30T00:49:10.694Z,11.23
2022-10-30T00:51:41.593Z,11.20
2022-10-30T00:54:09.116Z,11.20
2022-10-30T00:56:35.627Z,11.20
2022-10-30T00:59:06.716Z,11.17
2022-10-30T01:01:37.933Z,11.19
2022-10-30T01:04:06.390Z,11.17
2022-10-30T01:06:35.473Z,11.17
2022-10-30T01:09:03.202Z,11.15
2022-10-30T01:11:29.807Z,11.15
2022-10-30T01:13:59.941Z,11.14
2022-10-30T01:16:47.569Z,11.12
2022-10-30T01:19:44.523Z,11.11
2022-10-30T01:22:29.686Z,11.07
2022-10-30T01:25:02.159Z,11.09
2022-10-30T01:27:53.379Z,11.06
2022-10-30T01:30:22.672Z,11.03
2022-10-30T01:33:01.704Z,11.03
2022-10-30T01:35:40.483Z,11.04
2022-10-30T01:38:12.488Z,11.03
2022-10-30T01:40:38.844Z,11.00
2022-10-30T01:43:05.265Z,10.99
2022-10-30T01:45:50.237Z,10.93
2022-10-30T01:48:31.769Z,10.91
2022-10-30T01:51:19.561Z,10.88
2022-10-30T01:53:45.907Z,10.86
2022-10-30T01:56:40.268Z,10.84
2022-10-30T01:59:52.145Z,10.79
2022-10-30T02:02:18.943Z,10.81
2022-10-30T02:04:45.791Z,10.79
2022-10-30T02:07:12.641Z,10.74
2022-10-30T02:09:39.743Z,10.79
2022-10-30T02:12:07.116Z,10.74
2022-10-30T02:14:38.744Z,10.70
2022-10-30T02:17:07.262Z,10.64
2022-10-30T02:19:34.256Z,10.63
2022-10-30T02:22:01.110Z,10.63
2022-10-30T02:24:28.879Z,10.61
2022-10-30T02:26:55.324Z,10.57
2022-10-30T02:29:21.907Z,10.53
2022-10-30T02:31:49.080Z,10.47
2022-10-30T02:34:15.535Z,10.48
2022-10-30T02:36:42.057Z,10.47
2022-10-30T02:39:08.671Z,10.50
2022-10-30T02:41:35.061Z,10.48
2022-10-30T02:44:01.866Z,10.45
2022-10-30T02:46:28.233Z,10.42
2022-10-30T02:48:54.629Z,10.39
2022-10-30T02:51:21.124Z,10.40
2022-10-30T02:53:47.536Z,10.40
2022-10-30T02:56:14.658Z,10.41
2022-10-30T02:58:42.219Z,10.41
2022-10-30T03:01:11.077Z,10.40
2022-10-30T03:03:37.895Z,10.40
2022-10-30T03:06:06.765Z,10.38
2022-10-30T03:08:33.514Z,10.38
2022-10-30T03:11:05.722Z,10.37
2022-10-30T03:13:34.267Z,10.35
2022-10-30T03:16:02.258Z,10.37
2022-10-30T03:18:28.961Z,10.38
2022-10-30T03:21:00.691Z,10.40
2022-10-30T03:23:27.979Z,10.41
2022-10-30T03:25:58.600Z,10.41
2022-10-30T03:28:27.495Z,10.44
2022-10-30T03:31:01.893Z,10.44
2022-10-30T03:33:28.704Z,10.46
2022-10-30T03:35:55.806Z,10.44
2022-10-30T03:38:22.207Z,10.42
2022-10-30T03:40:48.643Z,10.43
2022-10-30T03:43:15.091Z,10.43
2022-10-30T03:45:46.530Z,10.45
2022-10-30T03:48:12.984Z,10.46
2022-10-30T03:50:39.364Z,10.48
2022-10-30T03:53:05.767Z,10.50
2022-10-30T03:55:32.276Z,10.55
2022-10-30T03:57:58.999Z,10.59
2022-10-30T04:00:25.765Z,10.59
2022-10-30T04:02:52.490Z,10.61
2022-10-30T04:05:22.192Z,10.60
2022-10-30T04:07:48.920Z,10.60
2022-10-30T04:10:20.875Z,10.62
2022-10-30T04:12:50.465Z,10.67
2022-10-30T04:15:16.852Z,10.68
2022-10-30T04:17:51.226Z,10.64
2022-10-30T04:20:22.641Z,10.64
2022-10-30T04:22:49.419Z,10.64
2022-10-30T04:25:15.833Z,10.63
2022-10-30T04:27:43.487Z,10.66
2022-10-30T04:30:11.893Z,10.66
2022-10-30T04:32:52.465Z,10.67
2022-10-30T04:35:21.042Z,10.66
2022-10-30T04:37:54.445Z,10.69
2022-10-30T04:40:22.224Z,10.70
2022-10-30T04:42:48.698Z,10.68
2022-10-30T04:45:15.582Z,10.69
2022-10-30T04:47:42.089Z,10.69
2022-10-30T04:50:09.229Z,10.69
2022-10-30T04:52:35.636Z,10.66
2022-10-30T04:55:02.495Z,10.66
2022-10-30T04:57:31.261Z,10.66
2022-10-30T05:00:00.791Z,10.67
2022-10-30T05:02:27.280Z,10.69
2022-10-30T05:04:53.817Z,10.73
2022-10-30T05:07:20.676Z,10.65
2022-10-30T05:09:47.040Z,10.64
2022-10-30T05:12:13.499Z,10.62
2022-10-30T05:14:39.917Z,10.65
2022-10-30T05:17:06.340Z,10.63
2022-10-30T05:19:32.691Z,10.64
2022-10-30T05:21:59.089Z,10.64
2022-10-30T05:24:25.449Z,10.63
2022-10-30T05:26:51.838Z,10.60
2022-10-30T05:29:18.236Z,10.60
2022-10-30T05:31:44.605Z,10.70
2022-10-30T05:34:11.027Z,10.61
2022-10-30T05:36:37.566Z,10.64
2022-10-30T05:39:04.484Z,10.58
2022-10-30T05:41:30.879Z,10.54
2022-10-30T05:43:57.320Z,10.55
2022-10-30T05:46:23.728Z,10.56
2022-10-30T05:48:50.121Z,10.53
2022-10-30T05:51:16.511Z,10.60
2022-10-30T05:53:42.944Z,10.61
2022-10-30T05:56:09.371Z,10.60
2022-10-30T05:58:35.766Z,10.61
2022-10-30T06:01:07.019Z,10.60
2022-10-30T06:03:33.408Z,10.57
2022-10-30T06:05:59.803Z,10.57
2022-10-30T06:08:26.205Z,10.57
2022-10-30T06:10:54.812Z,10.55
2022-10-30T06:13:21.529Z,10.57
2022-10-30T06:15:47.933Z,10.60
2022-10-30T06:18:14.883Z,10.64
2022-10-30T06:20:41.814Z,10.64
2022-10-30T06:23:10.103Z,10.63
2022-10-30T06:25:41.051Z,10.64
2022-10-30T06:28:10.177Z,10.66
2022-10-30T06:30:36.659Z,10.71
2022-10-30T06:33:05.283Z,10.74
2022-10-30T06:35:32.220Z,10.77
2022-10-30T06:38:00.291Z,10.81
2022-10-30T06:40:27.777Z,10.88
2022-10-30T06:42:54.755Z,10.95
2022-10-30T06:45:23.274Z,11.02
2022-10-30T06:47:50.136Z,11.09
2022-10-30T06:50:19.178Z,11.16
2022-10-30T06:52:45.775Z,11.24
2022-10-30T06:55:12.367Z,11.35
2022-10-30T06:57:38.823Z,11.44
2022-10-30T07:00:06.792Z,11.53
2022-10-30T07:02:34.104Z,11.64
2022-10-30T07:05:00.579Z,11.77
2022-10-30T07:07:27.027Z,11.82
2022-10-30T07:09:53.431Z,11.94
2022-10-30T07:12:19.920Z,12.11
2022-10-30T07:14:46.293Z,12.28
2022-10-30T07:17:12.663Z,12.63
2022-10-30T07:19:39.045Z,13.06
2022-10-30T07:22:05.439Z,13.36
2022-10-30T07:24:31.873Z,13.68
2022-10-30T07:26:58.267Z,13.95
2022-10-30T07:29:24.763Z,14.41
2022-10-30T07:32:02.344Z,14.40
2022-10-30T07:34:29.332Z,14.62
2022-10-30T07:36:55.769Z,14.47
2022-10-30T07:39:22.153Z,14.27
2022-10-30T07:41:50.524Z,14.29
2022-10-30T07:44:17.306Z,14.23
2022-10-30T07:46:43.744Z,14.23
2022-10-30T07:49:10.160Z,14.41
2022-10-30T07:51:36.539Z,14.57
2022-10-30T07:54:03.089Z,15.12
2022-10-30T07:56:29.515Z,15.79
2022-10-30T07:58:58.080Z,16.27
2022-10-30T08:01:24.566Z,16.70
2022-10-30T08:03:51.014Z,17.27
2022-10-30T08:06:20.080Z,17.68
2022-10-30T08:08:49.467Z,18.35
2022-10-30T08:11:15.879Z,18.23
2022-10-30T08:13:42.239Z,18.18
2022-10-30T08:16:08.709Z,17.80
2022-10-30T08:18:35.406Z,17.59
2022-10-30T08:21:01.890Z,17.84
2022-10-30T08:23:28.265Z,18.66
2022-10-30T08:25:57.349Z,18.93
2022-10-30T08:28:26.943Z,18.79
2022-10-30T08:30:58.566Z,19.02
2022-10-30T08:33:25.305Z,19.24
2022-10-30T08:35:54.030Z,19.08
2022-10-30T08:38:20.453Z,19.31
2022-10-30T08:40:46.883Z,19.69
2022-10-30T08:43:13.597Z,19.87
2022-10-30T08:45:42.002Z,20.10
2022-10-30T08:48:11.687Z,20.31
2022-10-30T08:50:38.060Z,20.47
2022-10-30T08:53:07.057Z,20.41
2022-10-30T08:55:34.985Z,20.58
2022-10-30T08:58:01.799Z,20.74
2022-10-30T09:00:28.459Z,20.61
2022-10-30T09:02:54.955Z,20.87
2022-10-30T09:05:21.458Z,20.87
2022-10-30T09:07:48.215Z,20.98
2022-10-30T09:10:15.381Z,21.05
2022-10-30T09:12:41.927Z,21.13
2022-10-30T09:15:08.700Z,20.97
2022-10-30T09:17:35.100Z,20.76
2022-10-30T09:20:01.586Z,20.86
2022-10-30T09:22:28.015Z,20.90
2022-10-30T09:24:54.417Z,20.73
2022-10-30T09:27:20.819Z,21.02
2022-10-30T09:29:47.192Z,21.17
2022-10-30T09:32:13.571Z,21.10
2022-10-30T09:34:40.997Z,20.84
2022-10-30T09:37:08.343Z,20.98
2022-10-30T09:39:34.697Z,20.99
2022-10-30T09:42:36.600Z,21.13
2022-10-30T09:45:28.011Z,21.09
2022-10-30T09:48:30.425Z,21.42
2022-10-30T09:51:05.694Z,21.57
2022-10-30T09:53:45.881Z,21.33
2022-10-30T09:56:14.819Z,21.03
2022-10-30T09:58:53.327Z,21.42
2022-10-30T10:01:30.432Z,21.57
2022-10-30T10:04:08.467Z,21.61
2022-10-30T10:06:41.408Z,21.86
2022-10-30T10:09:17.294Z,21.94
2022-10-30T10:11:49.252Z,21.99
2022-10-30T10:14:21.845Z,21.91
2022-10-30T10:16:56.962Z,21.99
2022-10-30T10:19:39.192Z,22.19
2022-10-30T10:22:30.579Z,22.23
2022-10-30T10:24:57.110Z,22.11
2022-10-30T10:27:43.740Z,22.18
2022-10-30T10:30:13.874Z,22.34
2022-10-30T10:33:18.920Z,22.11
2022-10-30T10:35:58.949Z,22.22
2022-10-30T10:38:37.150Z,22.30
2022-10-30T10:41:08.712Z,22.75
2022-10-30T10:43:42.078Z,22.98
2022-10-30T10:46:27.487Z,22.85
2022-10-30T10:49:16.090Z,22.42
2022-10-30T10:51:45.642Z,22.18
2022-10-30T10:54:38.962Z,21.85
2022-10-30T10:57:07.105Z,21.65
2022-10-30T10:59:38.414Z,21.87
2022-10-30T11:02:26.542Z,22.54
2022-10-30T11:04:55.318Z,23.27
2022-10-30T11:07:30.107Z,23.59
2022-10-30T11:09:57.944Z,23.88
2022-10-30T11:12:33.650Z,24.05
2022-10-30T11:15:22.850Z,23.65
2022-10-30T11:17:58.648Z,23.58
2022-10-30T11:20:34.804Z,23.74
2022-10-30T11:23:01.939Z,23.97
2022-10-30T11:25:34.539Z,24.61
2022-10-30T11:28:04.498Z,24.30
2022-10-30T11:30:31.453Z,23.99
2022-10-30T11:32:58.881Z,23.70
2022-10-30T11:35:25.502Z,23.48
2022-10-30T11:38:12.649Z,23.09
2022-10-30T11:40:41.114Z,23.25
2022-10-30T11:43:11.077Z,23.17
2022-10-30T11:45:43.309Z,22.94
2022-10-30T11:48:27.210Z,23.01
2022-10-30T11:50:59.024Z,22.93
2022-10-30T11:53:34.873Z,22.83
2022-10-30T11:56:04.171Z,22.65
2022-10-30T11:58:43.034Z,22.54
2022-10-30T12:01:19.684Z,22.88
2022-10-30T12:03:46.275Z,22.70
2022-10-30T12:06:25.157Z,22.36
2022-10-30T12:09:09.553Z,22.25
2022-10-30T12:11:37.510Z,22.20
2022-10-30T12:14:04.904Z,22.32
2022-10-30T12:16:32.872Z,22.27
2022-10-30T12:19:02.468Z,22.49
2022-10-30T12:21:34.979Z,22.28
2022-10-30T12:24:06.808Z,22.16
2022-10-30T12:26:35.294Z,22.12
2022-10-30T12:29:06.500Z,22.01
2022-10-30T12:31:38.637Z,22.02
2022-10-30T12:34:24.791Z,22.03
2022-10-30T12:37:03.683Z,21.88
2022-10-30T12:39:46.400Z,21.79
2022-10-30T12:42:17.682Z,21.97
2022-10-30T12:44:49.867Z,21.95
2022-10-30T12:47:33.385Z,21.90
2022-10-30T12:50:27.696Z,21.75
2022-10-30T12:52:57.755Z,21.81
2022-10-30T12:55:29.980Z,21.75
2022-10-30T12:58:14.502Z,21.68
2022-10-30T13:00:50.345Z,21.68
2022-10-30T13:03:35.601Z,21.63
2022-10-30T13:06:16.460Z,21.48
2022-10-30T13:08:50.970Z,21.46
2022-10-30T13:11:43.153Z,21.33
2022-10-30T13:14:34.329Z,21.21
2022-10-30T13:17:00.755Z,21.22
2022-10-30T13:19:28.159Z,21.22
2022-10-30T13:22:07.147Z,21.15
2022-10-30T13:25:03.892Z,21.23
2022-10-30T13:28:11.844Z,21.12
2022-10-30T13:30:44.343Z,20.99
2022-10-30T13:33:42.811Z,20.98
2022-10-30T13:36:18.550Z,20.92
2022-10-30T13:39:24.162Z,20.87
2022-10-30T13:42:09.235Z,20.77
2022-10-30T13:44:41.891Z,20.79
2022-10-30T13:47:23.864Z,20.71
2022-10-30T13:49:59.390Z,20.57
2022-10-30T13:52:31.337Z,20.51
2022-10-30T13:55:24.292Z,20.42
2022-10-30T13:58:12.524Z,20.40
2022-10-30T14:01:10.905Z,20.38
2022-10-30T14:03:56.688Z,20.55
2022-10-30T14:06:45.807Z,20.35
2022-10-30T14:09:24.302Z,20.25
2022-10-30T14:11:53.505Z,20.16
2022-10-30T14:14:30.745Z,20.15
2022-10-30T14:17:26.492Z,20.07
2022-10-30T14:20:10.407Z,20.00
2022-10-30T14:22:40.563Z,19.93
2022-10-30T14:25:16.481Z,19.92
2022-10-30T14:27:43.104Z,19.80
2022-10-30T14:30:19.869Z,19.70
2022-10-30T14:32:55.815Z,19.66
2022-10-30T14:35:39.519Z,19.61
2022-10-30T14:38:08.609Z,19.54
2022-10-30T14:40:41.682Z,19.44
2022-10-30T14:44:04.241Z,19.34
2022-10-30T14:46:48.545Z,19.29
2022-10-30T14:49:36.547Z,19.19
2022-10-30T14:53:00.251Z,19.04
2022-10-30T14:55:40.596Z,18.95
2022-10-30T14:58:06.921Z,18.87
2022-10-30T15:00:33.367Z,18.80
2022-10-30T15:03:11.642Z,18.74
2022-10-30T15:06:01.401Z,18.66
2022-10-30T15:08:56.561Z,18.57
2022-10-30T15:11:42.273Z,18.49
2022-10-30T15:14:39.942Z,18.41
2022-10-30T15:17:19.649Z,18.31
2022-10-30T15:19:46.790Z,18.23
2022-10-30T15:22:19.191Z,18.12
2022-10-30T15:24:46.252Z,18.06
2022-10-30T15:27:19.016Z,17.91
2022-10-30T15:29:51.631Z,17.85
2022-10-30T15:32:20.638Z,17.77
2022-10-30T15:35:03.068Z,17.59
2022-10-30T15:37:30.182Z,17.49
2022-10-30T15:40:33.898Z,17.34
2022-10-30T15:43:02.703Z,17.20
2022-10-30T15:45:38.351Z,17.03
2022-10-30T15:48:31.257Z,16.96
2022-10-30T15:51:05.144Z,16.85
2022-10-30T15:53:48.100Z,16.76
2022-10-30T15:56:20.145Z,16.67
2022-10-30T15:59:23.993Z,16.55
2022-10-30T16:01:56.773Z,16.50
2022-10-30T16:04:35.717Z,16.36
2022-10-30T16:07:16.173Z,16.26
2022-10-30T16:09:54.882Z,16.20
2022-10-30T16:12:25.861Z,16.09
2022-10-30T16:14:55.848Z,16.04
2022-10-30T16:17:24.216Z,15.96
2022-10-30T16:19:54.442Z,15.83
2022-10-30T16:22:28.163Z,15.69
2022-10-30T16:24:58.810Z,15.67
2022-10-30T16:27:25.943Z,15.58
2022-10-30T16:29:57.287Z,15.49
2022-10-30T16:32:30.659Z,15.43
2022-10-30T16:34:58.800Z,15.28
2022-10-30T16:37:37.261Z,15.23
2022-10-30T16:40:11.141Z,15.17
2022-10-30T16:42:38.276Z,15.20
2022-10-30T16:45:34.586Z,15.01
2022-10-30T16:48:19.508Z,15.00
2022-10-30T16:50:47.281Z,14.98
2022-10-30T16:53:20.240Z,14.91
2022-10-30T16:55:47.080Z,14.80
2022-10-30T16:58:15.012Z,14.68
2022-10-30T17:00:48.870Z,14.64
2022-10-30T17:03:15.649Z,14.47
2022-10-30T17:05:43.745Z,14.49
2022-10-30T17:08:13.730Z,14.44
2022-10-30T17:11:02.211Z,14.35
2022-10-30T17:13:35.757Z,14.36
2022-10-30T17:16:37.318Z,14.26
2022-10-30T17:19:45.129Z,14.23
2022-10-30T17:22:16.389Z,14.19
2022-10-30T17:24:43.075Z,14.10
2022-10-30T17:27:28.915Z,14.03
2022-10-30T17:29:55.520Z,13.99
2022-10-30T17:32:41.188Z,14.01
2022-10-30T17:35:16.658Z,13.87
2022-10-30T17:37:43.305Z,13.74
2022-10-30T17:40:11.552Z,13.76
2022-10-30T17:42:38.065Z,13.71
2022-10-30T17:45:12.294Z,13.65
2022-10-30T17:47:38.810Z,13.59
2022-10-30T17:50:05.985Z,13.58
2022-10-30T17:52:34.006Z,13.53
2022-10-30T17:55:19.914Z,13.47
2022-10-30T17:57:46.426Z,13.39
2022-10-30T18:00:13.721Z,13.40
2022-10-30T18:02:41.946Z,13.30
2022-10-30T18:05:15.814Z,13.32
2022-10-30T18:07:42.380Z,13.28
2022-10-30T18:10:09.726Z,13.21
2022-10-30T18:12:36.199Z,13.17
2022-10-30T18:15:24.560Z,13.10
2022-10-30T18:17:51.058Z,13.07
2022-10-30T18:20:17.613Z,12.92
2022-10-30T18:22:44.227Z,12.93
2022-10-30T18:25:24.654Z,12.99
2022-10-30T18:27:51.407Z,12.96
2022-10-30T18:30:18.686Z,12.86
2022-10-30T18:32:46.110Z,12.83
2022-10-30T18:35:27.096Z,12.75
2022-10-30T18:37:53.602Z,12.73
2022-10-30T18:40:22.520Z,12.71
2022-10-30T18:42:49.465Z,12.58
2022-10-30T18:45:23.581Z,12.66
2022-10-30T18:47:51.185Z,12.65
2022-10-30T18:50:19.768Z,12.59
2022-10-30T18:52:46.622Z,12.60
2022-10-30T18:55:23.467Z,12.53
2022-10-30T18:57:51.166Z,12.44
2022-10-30T19:00:23.563Z,12.42
2022-10-30T19:02:50.158Z,12.42
2022-10-30T19:05:24.966Z,12.35
2022-10-30T19:07:51.600Z,12.32
2022-10-30T19:10:18.474Z,12.29
2022-10-30T19:13:04.232Z,12.26
2022-10-30T19:15:37.121Z,12.20
2022-10-30T19:18:05.369Z,12.19
2022-10-30T19:20:58.509Z,12.17
2022-10-30T19:23:22.685Z,12.23
2022-10-30T19:25:49.598Z,12.16
2022-10-30T19:28:17.757Z,12.09
2022-10-30T19:30:50.127Z,12.02
2022-10-30T19:33:21.419Z,11.97
2022-10-30T19:36:01.019Z,11.97
2022-10-30T19:38:28.339Z,11.94
2022-10-30T19:40:54.948Z,11.90
2022-10-30T19:43:21.499Z,11.90
2022-10-30T19:45:51.281Z,11.91
2022-10-30T19:48:40.492Z,11.91
2022-10-30T19:51:09.317Z,11.86
2022-10-30T19:53:35.836Z,11.79
2022-10-30T19:56:02.371Z,11.84
2022-10-30T19:58:29.055Z,11.81
2022-10-30T20:00:55.686Z,11.76
2022-10-30T20:03:22.375Z,11.72
2022-10-30T20:05:50.532Z,11.63
2022-10-30T20:08:24.971Z,11.61
2022-10-30T20:10:57.256Z,11.57
2022-10-30T20:13:25.800Z,11.55
2022-10-30T20:15:53.899Z,11.55
2022-10-30T20:18:23.558Z,11.54
2022-10-30T20:20:52.759Z,11.52
2022-10-30T20:23:22.941Z,11.54
2022-10-30T20:25:52.512Z,11.51
2022-10-30T20:28:35.281Z,11.42
2022-10-30T20:31:02.311Z,11.39
2022-10-30T20:33:28.963Z,11.40
2022-10-30T20:35:56.383Z,11.33
2022-10-30T20:38:29.339Z,11.36
2022-10-30T20:40:56.914Z,11.27
2022-10-30T20:43:33.977Z,11.22
2022-10-30T20:46:00.701Z,11.21
2022-10-30T20:48:27.979Z,11.17
2022-10-30T20:50:59.412Z,11.17
2022-10-30T20:53:26.522Z,11.16
2022-10-30T20:55:53.142Z,11.09
2022-10-30T20:58:20.268Z,11.11
2022-10-30T21:00:47.429Z,11.09
2022-10-30T21:03:17.049Z,11.10
2022-10-30T21:05:46.028Z,10.99
2022-10-30T21:08:28.945Z,10.95
2022-10-30T21:11:04.761Z,10.94
2022-10-30T21:13:40.497Z,10.86
2022-10-30T21:16:10.791Z,10.90
2022-10-30T21:18:37.830Z,10.79
2022-10-30T21:21:12.432Z,10.81
2022-10-30T21:23:39.601Z,10.78
2022-10-30T21:26:10.762Z,10.80
2022-10-30T21:28:40.825Z,10.67
2022-10-30T21:31:13.007Z,10.68
2022-10-30T21:33:40.211Z,10.62
2022-10-30T21:36:17.908Z,10.59
2022-10-30T21:38:49.970Z,10.63
2022-10-30T21:41:20.071Z,10.57
2022-10-30T21:43:52.279Z,10.59
2022-10-30T21:46:19.311Z,10.52
2022-10-30T21:48:46.372Z,10.49
2022-10-30T21:51:21.742Z,10.45
2022-10-30T21:53:49.746Z,10.45
2022-10-30T21:56:24.043Z,10.51
2022-10-30T21:58:51.586Z,10.40
2022-10-30T22:01:25.898Z,10.39
2022-10-30T22:03:53.775Z,10.28
2022-10-30T22:06:22.829Z,10.33
2022-10-30T22:08:51.802Z,10.34
2022-10-30T22:11:20.030Z,10.26
2022-10-30T22:13:54.965Z,10.22
2022-10-30T22:16:22.282Z,10.16
2022-10-30T22:18:49.796Z,10.12
2022-10-30T22:21:16.641Z,10.05
2022-10-30T22:23:43.687Z,10.03
2022-10-30T22:26:19.251Z,10.06
2022-10-30T22:28:46.348Z,10.03
2022-10-30T22:31:18.391Z,10.07
2022-10-30T22:33:45.704Z,10.04
2022-10-30T22:36:26.475Z,10.00
2022-10-30T22:39:02.390Z,9.93
2022-10-30T22:41:32.891Z,10.00
2022-10-30T22:44:07.806Z,9.97
2022-10-30T22:46:38.373Z,9.95
2022-10-30T22:49:05.444Z,9.96
2022-10-30T22:51:33.866Z,9.86
2022-10-30T22:54:02.436Z,9.92
2022-10-30T22:56:35.247Z,9.90
2022-10-30T22:59:08.852Z,9.89
2022-10-30T23:01:40.013Z,9.81
2022-10-30T23:04:10.051Z,9.86
2022-10-30T23:06:36.996Z,9.76
2022-10-30T23:09:08.811Z,9.72
2022-10-30T23:11:36.087Z,9.73
2022-10-30T23:14:02.865Z,9.72
2022-10-30T23:16:29.667Z,9.72
2022-10-30T23:18:57.954Z,9.66
2022-10-30T23:21:26.945Z,9.67
2022-10-30T23:23:54.136Z,9.69
2022-10-30T23:26:24.203Z,9.66
2022-10-30T23:28:53.478Z,9.64
2022-10-30T23:31:29.182Z,9.60
2022-10-30T23:34:01.300Z,9.56
2022-10-30T23:36:28.111Z,9.49
2022-10-30T23:38:56.921Z,9.49
2022-10-30T23:41:28.890Z,9.58
2022-10-30T23:43:59.914Z,9.46
2022-10-30T23:46:27.337Z,9.39
2022-10-30T23:48:54.822Z,9.39
2022-10-30T23:51:21.876Z,9.42
2022-10-30T23:53:48.673Z,9.34
2022-10-30T23:56:18.817Z,9.39
2022-10-30T23:58:47.297Z,9.34
